GCC Virtual Airport Information Service

Guangzhou Baiyun International Airport

ICAO: ZGGG Country: CN
Latitude: 23.3924 Longitude: 113.299
Latest Arrival : QTR874 (OTHH-ZGGG) Latest Departure : KAC420 (ZGGG-OKBK)


WX CaptureLIVE
Data provided by noaa.gov | Fetched at 07:07:29

METAR : ZGGG 270630Z 19002MPS 140V260 CAVOK 24/11 Q1016 NOSIG

TAF : ZGGG 270311Z 2706/2806 03002MPS 8000 SCT040 TX25/2707Z TN16/2722Z BECMG 2800/2801 01007MPS


Runway Data for ZGGG
Data provided by openaviationdata.com

Runway ID Mag Var Hdg Length Elevation Surface ILS Freq ILS Id ILS Slope
02L -2 15° 11848 ft 50 ft Concrete 109.3 IOO 3
02R -2 15° 12504 ft 50 ft Concrete 110.9 IBB 3
20L -2 195° 12504 ft 50 ft Concrete 110.3 IAA 3
20R -2 195° 11848 ft 50 ft Concrete 111.5 IPP 3

Guangzhou Baiyun International Airport, CN
Use only for reference purposes



Not for navigational purposes.